createdAt,value
2019-01-28T00:02:12.970Z,98669.34
2019-01-28T00:04:43.397Z,98674.80
2019-01-28T00:07:13.863Z,98671.86
2019-01-28T00:09:47.123Z,98674.39
2019-01-28T00:12:19.649Z,98669.67
2019-01-28T00:14:59.603Z,98679.41
2019-01-28T00:17:30.009Z,98673.45
2019-01-28T00:20:00.650Z,98672.50
2019-01-28T00:22:32.974Z,98665.64
2019-01-28T00:25:03.994Z,98661.37
2019-01-28T00:27:34.302Z,98664.71
2019-01-28T00:30:06.312Z,98668.89
2019-01-28T00:32:36.976Z,98657.02
2019-01-28T00:35:08.465Z,98664.16
2019-01-28T00:37:38.826Z,98659.53
2019-01-28T00:40:12.324Z,98657.33
2019-01-28T00:42:42.960Z,98657.33
2019-01-28T00:45:13.987Z,98648.70
2019-01-28T00:47:49.978Z,98648.70
2019-01-28T00:50:19.002Z,98655.05
2019-01-28T00:52:50.406Z,98655.86
2019-01-28T00:55:22.114Z,98658.35
2019-01-28T00:57:52.424Z,98657.89
2019-01-28T01:00:23.577Z,98653.23
2019-01-28T01:02:53.947Z,98649.84
2019-01-28T01:05:24.286Z,98648.91
2019-01-28T01:07:54.832Z,98646.81
2019-01-28T01:10:25.351Z,98636.23
2019-01-28T01:13:04.874Z,98645.88
2019-01-28T01:15:33.640Z,98639.95
2019-01-28T01:18:04.059Z,98647.47
2019-01-28T01:20:36.952Z,98636.06
2019-01-28T01:23:07.250Z,98643.20
2019-01-28T01:25:38.140Z,98635.58
2019-01-28T01:28:08.877Z,98626.73
2019-01-28T01:30:48.659Z,98622.47
2019-01-28T01:33:15.562Z,98627.45
2019-01-28T01:35:47.180Z,98627.00
2019-01-28T01:38:18.735Z,98629.91
2019-01-28T01:40:50.022Z,98612.03
2019-01-28T01:43:20.389Z,98612.03
2019-01-28T01:45:52.228Z,98608.66
2019-01-28T01:48:22.924Z,98614.97
2019-01-28T01:51:02.760Z,98608.56
2019-01-28T01:53:34.095Z,98595.05
2019-01-28T01:56:10.007Z,98600.50
2019-01-28T01:58:40.455Z,98602.62
2019-01-28T02:01:18.443Z,98605.16
2019-01-28T02:03:48.877Z,98597.56
2019-01-28T02:06:33.750Z,98598.39
2019-01-28T02:08:59.476Z,98592.05
2019-01-28T02:11:32.248Z,98589.11
2019-01-28T02:14:07.685Z,98600.09
2019-01-28T02:16:41.072Z,98583.20
2019-01-28T02:19:11.408Z,98587.88
2019-01-28T02:22:00.185Z,98588.25
2019-01-28T02:24:19.477Z,98586.91
2019-01-28T02:26:49.971Z,98583.50
2019-01-28T02:29:20.502Z,98579.55
2019-01-28T02:31:50.832Z,98585.34
2019-01-28T02:34:21.215Z,98589.05
2019-01-28T02:36:51.771Z,98585.19
2019-01-28T02:39:22.133Z,98582.55
2019-01-28T02:41:52.489Z,98580.34
2019-01-28T02:44:31.745Z,98586.24
2019-01-28T02:47:02.240Z,98578.13
2019-01-28T02:49:40.509Z,98580.33
2019-01-28T02:52:10.744Z,98580.33
2019-01-28T02:54:45.860Z,98588.37
2019-01-28T02:57:16.669Z,98585.81
2019-01-28T02:59:47.219Z,98576.53
2019-01-28T03:02:17.898Z,98569.33
2019-01-28T03:04:48.230Z,98577.30
2019-01-28T03:07:19.470Z,98570.11
2019-01-28T03:09:49.754Z,98572.88
2019-01-28T03:12:25.667Z,98571.45
2019-01-28T03:14:56.215Z,98575.53
2019-01-28T03:17:29.090Z,98566.18
2019-01-28T03:19:58.914Z,98566.18
2019-01-28T03:22:29.824Z,98568.84
2019-01-28T03:25:00.330Z,98572.28
2019-01-28T03:27:30.732Z,98564.70
2019-01-28T03:30:08.056Z,98570.64
2019-01-28T03:32:38.608Z,98574.89
2019-01-28T03:35:11.939Z,98573.74
2019-01-28T03:37:42.280Z,98569.95
2019-01-28T03:40:16.058Z,98572.95
2019-01-28T03:42:46.517Z,98557.38
2019-01-28T03:45:18.546Z,98568.74
2019-01-28T03:47:49.358Z,98562.42
2019-01-28T03:50:20.413Z,98552.80
2019-01-28T03:52:51.541Z,98554.87
2019-01-28T03:55:22.070Z,98554.87
2019-01-28T03:57:52.700Z,98560.03
2019-01-28T04:00:25.608Z,98567.20
2019-01-28T04:03:00.546Z,98559.69
2019-01-28T04:05:30.496Z,98561.83
2019-01-28T04:08:01.193Z,98558.05
2019-01-28T04:10:48.862Z,98553.45
2019-01-28T04:13:19.287Z,98563.12
2019-01-28T04:15:49.510Z,98569.49
2019-01-28T04:18:20.627Z,98552.69
2019-01-28T04:20:50.923Z,98553.14
2019-01-28T04:23:21.517Z,98549.81
2019-01-28T04:25:53.132Z,98554.81
2019-01-28T04:28:23.730Z,98561.19
2019-01-28T04:30:54.078Z,98563.72
2019-01-28T04:33:29.052Z,98548.97
2019-01-28T04:35:59.596Z,98554.00
2019-01-28T04:38:31.441Z,98559.38
2019-01-28T04:41:02.019Z,98562.38
2019-01-28T04:43:32.745Z,98552.27
2019-01-28T04:46:03.108Z,98560.19
2019-01-28T04:48:34.115Z,98556.78
2019-01-28T04:51:13.551Z,98564.34
2019-01-28T04:53:42.462Z,98566.00
2019-01-28T04:56:12.930Z,98561.56
2019-01-28T04:58:43.224Z,98561.56
2019-01-28T05:01:14.089Z,98571.62
2019-01-28T05:03:48.945Z,98563.17
2019-01-28T05:06:18.343Z,98573.72
2019-01-28T05:08:49.462Z,98572.45
2019-01-28T05:11:23.050Z,98566.56
2019-01-28T05:13:53.994Z,98557.39
2019-01-28T05:16:26.935Z,98564.12
2019-01-28T05:18:59.982Z,98563.23
2019-01-28T05:21:30.577Z,98569.23
2019-01-28T05:24:07.807Z,98569.63
2019-01-28T05:26:33.347Z,98571.21
2019-01-28T05:29:03.832Z,98572.71
2019-01-28T05:31:34.619Z,98572.71
2019-01-28T05:34:08.100Z,98574.50
2019-01-28T05:36:38.778Z,98569.00
2019-01-28T05:39:10.119Z,98587.45
2019-01-28T05:41:43.975Z,98572.58
2019-01-28T05:44:14.386Z,98582.60
2019-01-28T05:46:48.287Z,98573.30
2019-01-28T05:49:20.733Z,98573.30
2019-01-28T05:51:51.393Z,98585.64
2019-01-28T05:54:24.503Z,98588.16
2019-01-28T05:56:54.755Z,98592.09
2019-01-28T05:59:25.097Z,98586.27
2019-01-28T06:01:56.868Z,98593.84
2019-01-28T06:04:27.166Z,98596.77
2019-01-28T06:06:57.959Z,98589.20
2019-01-28T06:09:35.366Z,98592.98
2019-01-28T06:12:05.988Z,98600.59
2019-01-28T06:14:42.414Z,98600.59
2019-01-28T06:17:14.394Z,98602.69
2019-01-28T06:19:45.116Z,98604.84
2019-01-28T06:22:15.845Z,98603.41
2019-01-28T06:24:46.199Z,98603.41
2019-01-28T06:27:16.658Z,98598.13
2019-01-28T06:29:47.102Z,98612.88
2019-01-28T06:32:17.431Z,98609.98
2019-01-28T06:34:50.744Z,98607.05
2019-01-28T06:37:21.062Z,98606.70
2019-01-28T06:39:54.060Z,98611.41
2019-01-28T06:42:25.239Z,98606.84
2019-01-28T06:44:55.572Z,98614.10
2019-01-28T06:47:25.847Z,98615.88
2019-01-28T06:49:56.158Z,98616.41
2019-01-28T06:52:26.758Z,98619.45
2019-01-28T06:54:57.083Z,98604.42
2019-01-28T06:57:35.151Z,98613.37
2019-01-28T07:00:05.799Z,98614.23
2019-01-28T07:02:41.204Z,98622.77
2019-01-28T07:05:11.858Z,98621.58
2019-01-28T07:08:00.308Z,98618.29
2019-01-28T07:10:30.776Z,98613.31
2019-01-28T07:13:04.507Z,98621.03
2019-01-28T07:15:36.450Z,98614.81
2019-01-28T07:18:06.820Z,98617.02
2019-01-28T07:20:38.280Z,98621.28
2019-01-28T07:23:56.880Z,98635.70
2019-01-28T07:26:28.647Z,98635.38
2019-01-28T07:29:00.618Z,98633.38
2019-01-28T07:31:30.969Z,98639.40
2019-01-28T07:34:02.454Z,98648.00
2019-01-28T07:36:32.757Z,98648.00
2019-01-28T07:39:07.274Z,98659.11
2019-01-28T07:41:37.925Z,98651.23
2019-01-28T07:44:13.814Z,98658.91
2019-01-28T07:46:44.286Z,98660.72
2019-01-28T07:49:14.872Z,98656.16
2019-01-28T07:51:46.727Z,98663.45
2019-01-28T07:54:17.834Z,98687.64
2019-01-28T07:56:51.941Z,98686.91
2019-01-28T07:59:22.523Z,98690.85
2019-01-28T08:01:54.219Z,98693.88
2019-01-28T08:04:24.582Z,98697.34
2019-01-28T08:06:59.565Z,98696.55
2019-01-28T08:09:28.678Z,98702.15
2019-01-28T08:11:59.227Z,98707.30
2019-01-28T08:14:29.605Z,98712.44
2019-01-28T08:17:02.461Z,98714.25
2019-01-28T08:19:32.806Z,98711.39
2019-01-28T08:22:05.060Z,98725.46
2019-01-28T08:24:35.599Z,98733.53
2019-01-28T08:27:16.672Z,98734.95
2019-01-28T08:29:43.486Z,98746.03
2019-01-28T08:32:18.502Z,98738.88
2019-01-28T08:34:49.581Z,98742.30
2019-01-28T08:37:24.796Z,98753.31
2019-01-28T08:39:55.759Z,98750.45
2019-01-28T08:42:31.929Z,98766.53
2019-01-28T08:45:08.383Z,98762.73
2019-01-28T08:47:48.149Z,98772.53
2019-01-28T08:50:21.395Z,98780.20
2019-01-28T08:52:55.368Z,98780.67
2019-01-28T08:55:26.099Z,98784.15
2019-01-28T08:57:58.990Z,98787.24
2019-01-28T09:00:41.734Z,98800.58
2019-01-28T09:03:13.716Z,98795.45
2019-01-28T09:05:45.627Z,98797.98
2019-01-28T09:08:21.417Z,98811.41
2019-01-28T09:10:52.334Z,98813.88
2019-01-28T09:13:23.341Z,98825.73
2019-01-28T09:15:53.749Z,98826.62
2019-01-28T09:18:26.501Z,98836.02
2019-01-28T09:20:56.227Z,98837.77
2019-01-28T09:23:28.525Z,98847.05
2019-01-28T09:25:59.193Z,98848.31
2019-01-28T09:28:29.686Z,98856.38
2019-01-28T09:31:01.285Z,98864.08
2019-01-28T09:33:31.843Z,98871.91
2019-01-28T09:36:08.553Z,98881.23
2019-01-28T09:38:40.419Z,98882.85
2019-01-28T09:41:11.156Z,98890.87
2019-01-28T09:43:41.482Z,98892.52
2019-01-28T09:46:12.116Z,98903.91
2019-01-28T09:48:42.407Z,98906.07
2019-01-28T09:51:13.032Z,98909.47
2019-01-28T09:53:44.720Z,98928.03
2019-01-28T09:56:15.354Z,98925.08
2019-01-28T09:59:03.993Z,98926.34
2019-01-28T10:01:23.231Z,98934.30
2019-01-28T10:03:53.648Z,98941.10
2019-01-28T10:06:24.303Z,98949.19
2019-01-28T10:08:54.649Z,98955.94
2019-01-28T10:11:26.461Z,98959.74
2019-01-28T10:13:56.849Z,98966.95
2019-01-28T10:16:28.261Z,98969.87
2019-01-28T10:18:58.588Z,98980.44
2019-01-28T10:21:36.461Z,98988.53
2019-01-28T10:24:06.850Z,99000.25
2019-01-28T10:26:37.417Z,98995.97
2019-01-28T10:29:12.294Z,99003.98
2019-01-28T10:31:44.535Z,99006.92
2019-01-28T10:34:15.113Z,99010.70
2019-01-28T10:36:45.782Z,99017.43
2019-01-28T10:39:16.097Z,99023.69
2019-01-28T10:41:46.431Z,99027.02
2019-01-28T10:44:17.102Z,99033.00
2019-01-28T10:46:50.402Z,99034.70
2019-01-28T10:49:21.841Z,99042.63
2019-01-28T10:51:52.521Z,99051.42
2019-01-28T10:54:23.131Z,99043.84
2019-01-28T10:56:54.079Z,99066.73
2019-01-28T10:59:24.381Z,99070.69
2019-01-28T11:02:04.561Z,99078.95
2019-01-28T11:04:37.572Z,99073.49
2019-01-28T11:07:18.418Z,99086.47
2019-01-28T11:09:47.716Z,99089.30
2019-01-28T11:12:19.205Z,99093.02
2019-01-28T11:14:52.049Z,99093.02
2019-01-28T11:17:22.787Z,99107.05
2019-01-28T11:20:02.267Z,99107.72
2019-01-28T11:22:33.176Z,99101.41
2019-01-28T11:25:08.341Z,99114.87
2019-01-28T11:27:42.078Z,99104.34
2019-01-28T11:30:19.541Z,99115.47
2019-01-28T11:32:51.969Z,99123.58
2019-01-28T11:35:22.688Z,99126.73
2019-01-28T11:37:53.317Z,99139.28
2019-01-28T11:40:24.021Z,99147.10
2019-01-28T11:42:54.709Z,99153.67
2019-01-28T11:45:32.222Z,99153.67
2019-01-28T11:48:02.846Z,99155.92
2019-01-28T11:50:42.677Z,99154.22
2019-01-28T11:53:13.053Z,99158.41
2019-01-28T11:55:43.538Z,99164.74
2019-01-28T11:58:13.820Z,99168.09
2019-01-28T12:00:53.355Z,99170.63
2019-01-28T12:03:27.366Z,99172.27
2019-01-28T12:05:59.351Z,99172.72
2019-01-28T12:08:32.342Z,99192.58
2019-01-28T12:11:04.942Z,99192.58
2019-01-28T12:13:42.925Z,99197.68
2019-01-28T12:16:12.646Z,99205.26
2019-01-28T12:18:51.517Z,99223.00
2019-01-28T12:21:22.072Z,99228.88
2019-01-28T12:23:53.692Z,99231.01
2019-01-28T12:26:26.015Z,99234.25
2019-01-28T12:29:04.429Z,99234.22
2019-01-28T12:31:36.800Z,99240.65
2019-01-28T12:34:08.799Z,99250.36
2019-01-28T12:36:41.108Z,99252.39
2019-01-28T12:39:21.935Z,99261.08
2019-01-28T12:41:53.876Z,99267.41
2019-01-28T12:44:24.437Z,99274.12
2019-01-28T12:46:56.561Z,99265.61
2019-01-28T12:49:27.123Z,99284.98
2019-01-28T12:51:57.668Z,99305.70
2019-01-28T12:54:27.992Z,99307.93
2019-01-28T12:57:02.904Z,99321.06
2019-01-28T12:59:33.386Z,99307.50
2019-01-28T13:02:04.488Z,99335.37
2019-01-28T13:04:42.201Z,99341.41
2019-01-28T13:07:10.378Z,99331.30
2019-01-28T13:09:46.485Z,99340.38
2019-01-28T13:12:16.964Z,99351.94
2019-01-28T13:14:48.807Z,99356.44
2019-01-28T13:17:19.120Z,99368.56
2019-01-28T13:19:54.402Z,99373.97
2019-01-28T13:22:24.649Z,99380.09
2019-01-28T13:24:56.747Z,99391.20
2019-01-28T13:27:27.341Z,99390.84
2019-01-28T13:29:57.662Z,99400.18
2019-01-28T13:32:28.234Z,99409.48
2019-01-28T13:34:58.692Z,99414.33
2019-01-28T13:37:29.234Z,99415.20
2019-01-28T13:39:59.602Z,99415.52
2019-01-28T13:42:32.896Z,99423.98
2019-01-28T13:45:03.273Z,99423.70
2019-01-28T13:47:34.907Z,99427.83
2019-01-28T13:50:09.472Z,99432.86
2019-01-28T13:52:43.083Z,99440.16
2019-01-28T13:55:14.192Z,99446.82
2019-01-28T13:57:45.126Z,99456.88
2019-01-28T14:00:24.173Z,99461.51
2019-01-28T14:02:54.750Z,99460.10
2019-01-28T14:05:25.544Z,99460.10
2019-01-28T14:07:59.011Z,99474.68
2019-01-28T14:10:29.462Z,99483.88
2019-01-28T14:13:03.038Z,99468.28
2019-01-28T14:15:35.755Z,99495.16
2019-01-28T14:18:23.378Z,99509.44
2019-01-28T14:20:43.384Z,99523.61
2019-01-28T14:23:19.225Z,99510.33
2019-01-28T14:25:49.338Z,99533.11
2019-01-28T14:28:21.277Z,99537.19
2019-01-28T14:30:53.183Z,99535.53
2019-01-28T14:33:23.840Z,99544.79
2019-01-28T14:35:54.262Z,99551.59
2019-01-28T14:38:24.911Z,99553.25
2019-01-28T14:40:59.535Z,99575.25
2019-01-28T14:43:31.573Z,99551.59
2019-01-28T14:46:15.407Z,99565.91
2019-01-28T14:48:49.169Z,99574.50
2019-01-28T14:51:18.100Z,99582.09
2019-01-28T14:53:48.481Z,99576.09
2019-01-28T14:56:18.894Z,99587.28
2019-01-28T14:58:49.592Z,99586.45
2019-01-28T15:01:25.203Z,99600.85
2019-01-28T15:03:55.637Z,99605.88
2019-01-28T15:06:27.284Z,99600.05
2019-01-28T15:08:59.391Z,99612.72
2019-01-28T15:11:29.711Z,99617.78
2019-01-28T15:14:00.190Z,99636.55
2019-01-28T15:16:30.567Z,99636.55
2019-01-28T15:19:01.520Z,99636.59
2019-01-28T15:21:32.194Z,99643.39
2019-01-28T15:24:06.141Z,99644.27
2019-01-28T15:26:36.451Z,99652.73
2019-01-28T15:29:07.051Z,99662.55
2019-01-28T15:31:39.334Z,99658.31
2019-01-28T15:34:11.219Z,99677.75
2019-01-28T15:36:49.528Z,99671.89
2019-01-28T15:39:20.249Z,99678.59
2019-01-28T15:41:50.887Z,99680.53
2019-01-28T15:44:23.986Z,99691.38
2019-01-28T15:46:54.348Z,99691.38
2019-01-28T15:49:31.422Z,99703.93
2019-01-28T15:51:58.929Z,99715.58
2019-01-28T15:54:29.609Z,99724.20
2019-01-28T15:57:10.315Z,99720.77
2019-01-28T15:59:37.274Z,99722.47
2019-01-28T16:02:14.490Z,99733.63
2019-01-28T16:04:46.130Z,99691.27
2019-01-28T16:07:19.436Z,99733.74
2019-01-28T16:09:50.086Z,99735.81
2019-01-28T16:12:20.394Z,99742.80
2019-01-28T16:14:51.190Z,99751.28
2019-01-28T16:17:21.544Z,99757.92
2019-01-28T16:19:51.917Z,99756.09
2019-01-28T16:22:26.226Z,99761.06
2019-01-28T16:24:56.820Z,99774.59
2019-01-28T16:27:27.158Z,99772.06
2019-01-28T16:30:01.135Z,99782.84
2019-01-28T16:32:31.341Z,99790.25
2019-01-28T16:35:02.392Z,99791.11
2019-01-28T16:37:32.929Z,99794.98
2019-01-28T16:40:05.479Z,99804.18
2019-01-28T16:42:35.850Z,99805.38
2019-01-28T16:45:08.653Z,99806.77
2019-01-28T16:47:42.499Z,99813.30
2019-01-28T16:50:16.373Z,99816.88
2019-01-28T16:52:46.676Z,99828.38
2019-01-28T16:55:17.835Z,99837.64
2019-01-28T16:57:48.810Z,99855.59
2019-01-28T17:00:23.080Z,99851.52
2019-01-28T17:02:53.459Z,99859.30
2019-01-28T17:05:29.544Z,99865.08
2019-01-28T17:08:01.995Z,99861.92
2019-01-28T17:10:33.844Z,99878.54
2019-01-28T17:13:04.391Z,99872.61
2019-01-28T17:15:36.397Z,99885.49
2019-01-28T17:18:06.940Z,99894.48
2019-01-28T17:20:38.860Z,99889.09
2019-01-28T17:23:31.903Z,99899.69
2019-01-28T17:25:50.815Z,99898.76
2019-01-28T17:28:21.649Z,99907.39
2019-01-28T17:30:52.770Z,99913.80
2019-01-28T17:33:26.912Z,99917.50
2019-01-28T17:35:58.722Z,99917.02
2019-01-28T17:38:38.288Z,99914.10
2019-01-28T17:43:45.151Z,99927.64
2019-01-28T17:46:18.231Z,99931.70
2019-01-28T17:48:48.813Z,99931.91
2019-01-28T17:51:21.574Z,99942.80
2019-01-28T17:53:53.079Z,99943.09
2019-01-28T17:56:23.440Z,99949.46
2019-01-28T17:58:53.746Z,99962.66
2019-01-28T18:01:24.353Z,99968.28
2019-01-28T18:03:55.030Z,99970.86
2019-01-28T18:06:25.909Z,99978.56
2019-01-28T18:08:56.924Z,99980.84
2019-01-28T18:11:31.502Z,99990.30
2019-01-28T18:14:03.519Z,99990.53
2019-01-28T18:16:34.061Z,99987.41
2019-01-28T18:19:07.406Z,100005.86
2019-01-28T18:21:38.370Z,100007.94
2019-01-28T18:24:09.842Z,100006.28
2019-01-28T18:26:42.254Z,100010.03
2019-01-28T18:29:12.608Z,100009.20
2019-01-28T18:31:45.258Z,100012.05
2019-01-28T18:34:27.131Z,100015.98
2019-01-28T18:36:50.039Z,100024.79
2019-01-28T18:39:23.416Z,100022.80
2019-01-28T18:41:53.752Z,100025.95
2019-01-28T18:44:25.486Z,100031.16
2019-01-28T18:46:56.346Z,100031.27
2019-01-28T18:49:26.828Z,100038.02
2019-01-28T18:51:59.446Z,100037.75
2019-01-28T18:54:29.904Z,100040.84
2019-01-28T18:57:15.887Z,100042.02
2019-01-28T18:59:35.819Z,100056.03
2019-01-28T19:02:06.418Z,100052.10
2019-01-28T19:04:38.053Z,100054.78
2019-01-28T19:07:38.312Z,100057.64
2019-01-28T19:10:41.294Z,100053.97
2019-01-28T19:13:21.927Z,100056.06
2019-01-28T19:16:23.159Z,100069.61
2019-01-28T19:19:09.037Z,100071.64
2019-01-28T19:21:51.495Z,100075.30
2019-01-28T19:24:23.608Z,100084.66
2019-01-28T19:26:55.186Z,100097.61
2019-01-28T19:29:28.149Z,100108.66
2019-01-28T19:31:58.507Z,100107.56
2019-01-28T19:34:30.850Z,100115.75
2019-01-28T19:37:01.485Z,100119.20
2019-01-28T19:39:34.321Z,100119.24
2019-01-28T19:42:06.701Z,100124.23
2019-01-28T19:44:44.698Z,100120.28
2019-01-28T19:47:13.287Z,100128.95
2019-01-28T19:49:43.619Z,100139.59
2019-01-28T19:52:14.041Z,100133.53
2019-01-28T19:54:44.961Z,100146.05
2019-01-28T19:57:15.673Z,100149.89
2019-01-28T19:59:48.331Z,100161.88
2019-01-28T20:02:19.014Z,100161.16
2019-01-28T20:04:53.126Z,100164.41
2019-01-28T20:07:23.832Z,100170.72
2019-01-28T20:09:54.978Z,100166.26
2019-01-28T20:12:27.475Z,100167.86
2019-01-28T20:15:00.918Z,100169.61
2019-01-28T20:17:31.732Z,100173.55
2019-01-28T20:20:03.263Z,100177.05
2019-01-28T20:22:34.898Z,100181.95
2019-01-28T20:25:07.159Z,100184.77
2019-01-28T20:27:44.688Z,100179.27
2019-01-28T20:30:26.688Z,100188.17
2019-01-28T20:33:02.452Z,100188.98
2019-01-28T20:35:34.038Z,100190.73
2019-01-28T20:38:16.143Z,100195.33
2019-01-28T20:40:45.066Z,100200.19
2019-01-28T20:43:24.105Z,100198.93
2019-01-28T20:45:53.348Z,100207.48
2019-01-28T20:48:28.827Z,100200.66
2019-01-28T20:50:59.585Z,100202.64
2019-01-28T20:53:39.585Z,100203.76
2019-01-28T20:56:10.463Z,100212.81
2019-01-28T20:58:44.616Z,100209.17
2019-01-28T21:01:15.333Z,100211.97
2019-01-28T21:03:45.982Z,100221.69
2019-01-28T21:06:23.061Z,100218.98
2019-01-28T21:08:55.505Z,100222.31
2019-01-28T21:11:30.961Z,100229.06
2019-01-28T21:14:02.409Z,100228.75
2019-01-28T21:16:33.215Z,100233.67
2019-01-28T21:19:05.255Z,100235.77
2019-01-28T21:21:41.752Z,100238.62
2019-01-28T21:24:08.409Z,100244.92
2019-01-28T21:26:38.748Z,100243.98
2019-01-28T21:29:09.220Z,100243.98
2019-01-28T21:31:41.927Z,100250.33
2019-01-28T21:34:12.633Z,100249.27
2019-01-28T21:36:59.112Z,100252.19
2019-01-28T21:39:29.967Z,100249.48
2019-01-28T21:42:11.073Z,100256.55
2019-01-28T21:44:41.874Z,100257.98
2019-01-28T21:47:25.405Z,100259.28
2019-01-28T21:49:57.602Z,100263.19
2019-01-28T21:52:36.650Z,100272.00
2019-01-28T21:55:08.893Z,100272.00
2019-01-28T21:57:44.221Z,100269.56
2019-01-28T22:00:16.383Z,100278.23
2019-01-28T22:02:52.740Z,100272.50
2019-01-28T22:05:21.639Z,100281.52
2019-01-28T22:07:59.098Z,100280.33
2019-01-28T22:10:29.942Z,100282.72
2019-01-28T22:13:05.371Z,100284.54
2019-01-28T22:15:38.319Z,100286.19
2019-01-28T22:18:13.567Z,100281.39
2019-01-28T22:20:42.592Z,100288.70
2019-01-28T22:23:14.264Z,100286.55
2019-01-28T22:25:44.715Z,100292.27
2019-01-28T22:28:15.041Z,100289.03
2019-01-28T22:30:48.113Z,100288.22
2019-01-28T22:33:18.863Z,100292.81
2019-01-28T22:35:59.275Z,100298.98
2019-01-28T22:38:28.826Z,100306.67
2019-01-28T22:41:01.193Z,100306.67
2019-01-28T22:43:31.656Z,100317.33
2019-01-28T22:46:04.674Z,100312.59
2019-01-28T22:48:35.428Z,100318.59
2019-01-28T22:51:08.060Z,100322.41
2019-01-28T22:53:48.091Z,100325.50
2019-01-28T22:56:18.508Z,100321.98
2019-01-28T22:58:50.524Z,100325.59
2019-01-28T23:01:26.833Z,100324.56
2019-01-28T23:03:58.496Z,100324.56
2019-01-28T23:06:30.506Z,100332.58
2019-01-28T23:09:01.015Z,100325.45
2019-01-28T23:11:32.612Z,100331.37
2019-01-28T23:14:02.978Z,100328.17
2019-01-28T23:16:36.873Z,100331.20
2019-01-28T23:19:07.266Z,100325.91
2019-01-28T23:21:37.623Z,100337.18
2019-01-28T23:24:08.107Z,100336.80
2019-01-28T23:26:40.857Z,100337.56
2019-01-28T23:29:11.341Z,100346.77
2019-01-28T23:31:44.386Z,100344.17
2019-01-28T23:34:15.202Z,100353.08
2019-01-28T23:36:50.317Z,100356.29
2019-01-28T23:39:20.669Z,100353.31
2019-01-28T23:41:54.487Z,100363.85
2019-01-28T23:44:25.088Z,100369.00
2019-01-28T23:47:02.583Z,100363.36
2019-01-28T23:49:34.695Z,100370.53
2019-01-28T23:52:05.640Z,100367.27
2019-01-28T23:54:37.637Z,100367.27
2019-01-28T23:57:08.696Z,100378.10
2019-01-28T23:59:43.389Z,100372.73
